KDTW

Detroit Metropolitan Wayne County Airport

ICAO Code KDTW
IATA Code DTW
Name Detroit Metropolitan Wayne County Airport
Location Detroit, Michigan, US
Elevation 645 Feet / 196.6 Meters
Latitude 42.21239853
Longitude -83.35340118
METAR KDTW 182253Z 22014KT 7SM -RA SCT055 SCT090 OVC120 24/14 A2997 RMK AO2 LTG DSNT E RAB47 SLP147 CB DSNT SE MOV SE T02390139 PNO $
Extra information Display NOTAMS
Display Charts
Runway Length Width Surface Elevation
03L 8501 ft 200 ft PEM 636 ft
03R 10001 ft 150 ft CON 633 ft
04L 10000 ft 150 ft CON 645 ft
04R 12003 ft 200 ft CON 637 ft
09L 8708 ft 200 ft PEM 638 ft
09R 8500 ft 150 ft CON 636 ft
21R 8501 ft 200 ft PEM 632 ft
21L 10001 ft 150 ft CON 632 ft
22R 10000 ft 150 ft CON 642 ft
22L 12003 ft 200 ft CON 636 ft
27R 8708 ft 200 ft PEM 635 ft
27L 8500 ft 150 ft CON 629 ft